createdAt,value
2022-11-06T00:00:52.909Z,14.52
2022-11-06T00:03:20.329Z,14.68
2022-11-06T00:06:06.051Z,14.99
2022-11-06T00:08:34.885Z,14.53
2022-11-06T00:11:02.221Z,14.97
2022-11-06T00:13:29.341Z,15.55
2022-11-06T00:15:56.698Z,15.60
2022-11-06T00:18:25.515Z,15.05
2022-11-06T00:20:52.663Z,15.05
2022-11-06T00:23:20.021Z,14.57
2022-11-06T00:25:47.125Z,14.72
2022-11-06T00:28:14.538Z,14.71
2022-11-06T00:30:42.225Z,14.74
2022-11-06T00:33:10.693Z,14.70
2022-11-06T00:35:38.918Z,15.32
2022-11-06T00:38:06.361Z,15.38
2022-11-06T00:40:33.539Z,15.56
2022-11-06T00:43:00.678Z,14.40
2022-11-06T00:45:28.062Z,14.10
2022-11-06T00:47:55.174Z,15.54
2022-11-06T00:50:26.339Z,15.67
2022-11-06T00:52:54.654Z,16.15
2022-11-06T00:55:21.794Z,14.90
2022-11-06T00:57:48.886Z,15.46
2022-11-06T01:00:18.127Z,15.53
2022-11-06T01:02:45.716Z,15.60
2022-11-06T01:05:13.196Z,15.67
2022-11-06T01:07:40.972Z,16.15
2022-11-06T01:10:08.197Z,15.76
2022-11-06T01:12:35.374Z,15.61
2022-11-06T01:15:02.931Z,16.07
2022-11-06T01:17:30.128Z,16.04
2022-11-06T01:19:57.258Z,15.86
2022-11-06T01:22:24.646Z,16.14
2022-11-06T01:24:51.809Z,15.46
2022-11-06T01:27:27.350Z,15.24
2022-11-06T01:29:55.263Z,14.93
2022-11-06T01:32:22.379Z,15.31
2022-11-06T01:34:50.187Z,15.48
2022-11-06T01:37:17.561Z,15.81
2022-11-06T01:39:44.752Z,15.60
2022-11-06T01:42:12.713Z,15.39
2022-11-06T01:44:43.234Z,15.49
2022-11-06T01:47:19.549Z,15.31
2022-11-06T01:49:46.936Z,14.91
2022-11-06T01:52:14.332Z,15.73
2022-11-06T01:54:42.005Z,15.56
2022-11-06T01:57:09.390Z,15.60
2022-11-06T01:59:38.051Z,15.22
2022-11-06T02:02:05.522Z,15.27
2022-11-06T02:04:33.972Z,15.48
2022-11-06T02:07:01.165Z,15.82
2022-11-06T02:09:28.316Z,15.94
2022-11-06T02:11:58.554Z,15.17
2022-11-06T02:14:33.286Z,16.09
2022-11-06T02:17:12.889Z,15.39
2022-11-06T02:19:58.808Z,15.79
2022-11-06T02:22:35.350Z,15.90
2022-11-06T02:25:21.241Z,15.21
2022-11-06T02:27:54.508Z,14.00
2022-11-06T02:30:21.630Z,15.06
2022-11-06T02:32:52.121Z,15.09
2022-11-06T02:35:29.594Z,14.87
2022-11-06T02:37:59.153Z,14.26
2022-11-06T02:40:26.634Z,15.00
2022-11-06T02:42:54.325Z,15.11
2022-11-06T02:45:21.732Z,15.70
2022-11-06T02:47:50.095Z,15.58
2022-11-06T02:50:18.997Z,15.70
2022-11-06T02:52:56.192Z,15.66
2022-11-06T02:55:25.574Z,15.88
2022-11-06T02:57:54.555Z,15.49
2022-11-06T03:00:23.759Z,15.49
2022-11-06T03:03:01.125Z,15.56
2022-11-06T03:06:00.964Z,14.93
2022-11-06T03:08:33.581Z,14.38
2022-11-06T03:11:06.766Z,14.95
2022-11-06T03:13:33.829Z,15.12
2022-11-06T03:16:04.955Z,15.00
2022-11-06T03:18:51.831Z,15.35
2022-11-06T03:21:21.669Z,15.00
2022-11-06T03:23:55.903Z,15.41
2022-11-06T03:26:23.198Z,15.33
2022-11-06T03:28:54.419Z,15.86
2022-11-06T03:31:29.727Z,15.67
2022-11-06T03:34:02.580Z,15.23
2022-11-06T03:36:31.293Z,14.88
2022-11-06T03:38:59.457Z,15.42
2022-11-06T03:41:30.158Z,14.38
2022-11-06T03:43:57.791Z,15.03
2022-11-06T03:46:25.245Z,14.49
2022-11-06T03:48:53.475Z,15.19
2022-11-06T03:51:43.552Z,15.57
2022-11-06T03:54:14.404Z,15.85
2022-11-06T03:56:48.707Z,15.41
2022-11-06T03:59:19.211Z,14.96
2022-11-06T04:01:46.392Z,15.92
2022-11-06T04:04:17.387Z,15.72
2022-11-06T04:06:46.320Z,15.18
2022-11-06T04:09:32.927Z,15.35
2022-11-06T04:12:18.882Z,16.01
2022-11-06T04:14:47.010Z,15.55
2022-11-06T04:17:14.485Z,15.67
2022-11-06T04:19:47.317Z,15.30
2022-11-06T04:22:40.922Z,15.37
2022-11-06T04:25:38.936Z,15.42
2022-11-06T04:28:19.895Z,15.93
2022-11-06T04:30:54.213Z,15.16
2022-11-06T04:33:21.662Z,14.75
2022-11-06T04:35:48.717Z,14.59
2022-11-06T04:38:20.147Z,14.71
2022-11-06T04:40:59.701Z,15.17
2022-11-06T04:43:35.921Z,14.88
2022-11-06T04:46:03.310Z,15.00
2022-11-06T04:48:30.416Z,14.10
2022-11-06T04:50:59.493Z,14.79
2022-11-06T04:53:26.866Z,14.72
2022-11-06T04:55:55.105Z,15.02
2022-11-06T04:58:22.205Z,15.19
2022-11-06T05:00:50.159Z,14.39
2022-11-06T05:03:17.603Z,14.30
2022-11-06T05:05:45.100Z,15.22
2022-11-06T05:08:16.508Z,14.71
2022-11-06T05:10:45.049Z,15.19
2022-11-06T05:13:12.428Z,14.68
2022-11-06T05:15:39.557Z,14.05
2022-11-06T05:18:06.862Z,14.22
2022-11-06T05:20:34.230Z,15.13
2022-11-06T05:23:01.344Z,14.75
2022-11-06T05:25:28.619Z,14.82
2022-11-06T05:27:56.034Z,14.99
2022-11-06T05:30:23.562Z,15.36
2022-11-06T05:32:50.706Z,14.54
2022-11-06T05:35:18.470Z,13.52
2022-11-06T05:37:45.575Z,14.01
2022-11-06T05:40:12.821Z,14.42
2022-11-06T05:42:40.450Z,14.40
2022-11-06T05:45:07.931Z,15.09
2022-11-06T05:47:35.044Z,14.68
2022-11-06T05:50:02.504Z,14.28
2022-11-06T05:52:29.653Z,14.43
2022-11-06T05:54:56.765Z,15.20
2022-11-06T05:57:24.152Z,14.79
2022-11-06T05:59:51.261Z,14.99
2022-11-06T06:02:18.487Z,14.73
2022-11-06T06:04:45.917Z,15.66
2022-11-06T06:07:13.027Z,15.50
2022-11-06T06:09:40.136Z,15.55
2022-11-06T06:12:08.122Z,14.52
2022-11-06T06:14:35.458Z,15.32
2022-11-06T06:17:02.567Z,14.89
2022-11-06T06:19:29.937Z,14.83
2022-11-06T06:21:57.320Z,15.13
2022-11-06T06:24:25.513Z,14.64
2022-11-06T06:26:52.894Z,14.90
2022-11-06T06:29:19.993Z,14.69
2022-11-06T06:31:47.132Z,14.09
2022-11-06T06:34:14.512Z,15.24
2022-11-06T06:36:41.606Z,15.49
2022-11-06T06:39:08.734Z,14.81
2022-11-06T06:41:36.306Z,14.56
2022-11-06T06:44:03.419Z,14.26
2022-11-06T06:46:30.570Z,14.43
2022-11-06T06:48:57.946Z,13.53
2022-11-06T06:51:25.076Z,14.23
2022-11-06T06:54:10.774Z,14.66
2022-11-06T06:56:38.163Z,14.09
2022-11-06T06:59:05.327Z,14.51
2022-11-06T07:01:32.944Z,14.25
2022-11-06T07:04:04.162Z,14.59
2022-11-06T07:06:32.342Z,15.41
2022-11-06T07:08:59.555Z,15.27
2022-11-06T07:11:26.967Z,14.68
2022-11-06T07:13:54.132Z,14.09
2022-11-06T07:16:21.847Z,14.62
2022-11-06T07:18:49.218Z,13.96
2022-11-06T07:21:16.321Z,14.74
2022-11-06T07:23:43.520Z,15.02
2022-11-06T07:26:10.894Z,15.65
2022-11-06T07:28:38.230Z,15.20
2022-11-06T07:31:06.300Z,14.49
2022-11-06T07:33:33.852Z,13.74
2022-11-06T07:36:11.954Z,14.20
2022-11-06T07:38:40.131Z,14.67
2022-11-06T07:41:08.660Z,14.57
2022-11-06T07:43:35.970Z,14.30
2022-11-06T07:46:04.239Z,14.88
2022-11-06T07:48:31.673Z,14.82
2022-11-06T07:50:58.825Z,14.79
2022-11-06T07:53:26.298Z,14.61
2022-11-06T07:55:54.217Z,14.16
2022-11-06T07:58:21.373Z,14.70
2022-11-06T08:00:49.429Z,13.78
2022-11-06T08:03:17.109Z,14.17
2022-11-06T08:05:44.239Z,13.59
2022-11-06T08:08:11.776Z,14.18
2022-11-06T08:10:40.600Z,14.07
2022-11-06T08:13:07.716Z,14.23
2022-11-06T08:15:34.826Z,14.90
2022-11-06T08:18:02.315Z,15.20
2022-11-06T08:20:29.463Z,15.34
2022-11-06T08:23:00.200Z,15.29
2022-11-06T08:25:27.779Z,15.20
2022-11-06T08:27:55.896Z,15.14
2022-11-06T08:30:23.042Z,14.86
2022-11-06T08:32:50.495Z,15.34
2022-11-06T08:35:18.840Z,15.66
2022-11-06T08:37:46.038Z,15.86
2022-11-06T08:40:13.587Z,15.40
2022-11-06T08:42:40.700Z,15.38
2022-11-06T08:45:08.149Z,14.28
2022-11-06T08:47:35.559Z,14.06
2022-11-06T08:50:02.682Z,15.32
2022-11-06T08:52:33.912Z,15.52
2022-11-06T08:55:02.206Z,14.90
2022-11-06T08:57:29.359Z,15.66
2022-11-06T08:59:56.463Z,15.37
2022-11-06T09:02:23.922Z,15.03
2022-11-06T09:04:51.112Z,15.12
2022-11-06T09:07:18.318Z,15.69
2022-11-06T09:09:45.682Z,14.86
2022-11-06T09:12:12.832Z,15.69
2022-11-06T09:14:40.270Z,15.71
2022-11-06T09:17:07.662Z,16.10
2022-11-06T09:19:34.799Z,16.00
2022-11-06T09:22:01.925Z,15.20
2022-11-06T09:24:57.251Z,15.89
2022-11-06T09:27:16.464Z,16.21
2022-11-06T09:29:44.573Z,16.95
2022-11-06T09:32:11.841Z,17.26
2022-11-06T09:34:39.014Z,17.26
2022-11-06T09:37:06.392Z,17.37
2022-11-06T09:39:33.529Z,17.17
2022-11-06T09:42:01.575Z,17.34
2022-11-06T09:44:38.107Z,17.78
2022-11-06T09:47:06.315Z,17.93
2022-11-06T09:49:37.707Z,17.57
2022-11-06T09:52:12.387Z,17.61
2022-11-06T09:54:43.718Z,17.66
2022-11-06T09:57:25.208Z,17.23
2022-11-06T09:59:52.791Z,17.47
2022-11-06T10:02:32.816Z,17.54
2022-11-06T10:05:19.181Z,17.48
2022-11-06T10:07:46.351Z,17.69
2022-11-06T10:10:17.695Z,17.62
2022-11-06T10:13:03.493Z,17.97
2022-11-06T10:15:34.632Z,17.92
2022-11-06T10:18:10.963Z,18.28
2022-11-06T10:20:41.884Z,17.72
2022-11-06T10:23:16.038Z,17.57
2022-11-06T10:25:44.885Z,17.82
2022-11-06T10:28:31.113Z,17.98
2022-11-06T10:31:03.810Z,17.21
2022-11-06T10:33:34.502Z,17.50
2022-11-06T10:36:03.344Z,17.99
2022-11-06T10:38:34.407Z,17.91
2022-11-06T10:41:02.130Z,18.03
2022-11-06T10:43:32.268Z,18.66
2022-11-06T10:46:11.990Z,18.65
2022-11-06T10:48:41.718Z,18.58
2022-11-06T10:51:15.099Z,18.74
2022-11-06T10:54:01.655Z,18.80
2022-11-06T10:56:47.722Z,18.26
2022-11-06T10:59:15.107Z,18.81
2022-11-06T11:01:42.411Z,19.13
2022-11-06T11:04:09.689Z,18.42
2022-11-06T11:06:41.395Z,17.74
2022-11-06T11:09:29.357Z,18.29
2022-11-06T11:11:57.025Z,18.29
2022-11-06T11:14:25.375Z,18.68
2022-11-06T11:16:52.858Z,18.95
2022-11-06T11:19:47.046Z,18.48
2022-11-06T11:22:19.127Z,18.33
2022-11-06T11:24:58.635Z,18.83
2022-11-06T11:27:25.775Z,18.57
2022-11-06T11:29:53.412Z,18.18
2022-11-06T11:32:21.077Z,18.27
2022-11-06T11:34:55.358Z,18.52
2022-11-06T11:37:36.650Z,18.65
2022-11-06T11:40:21.044Z,18.67
2022-11-06T11:42:49.572Z,18.81
2022-11-06T11:45:18.244Z,18.90
2022-11-06T11:47:49.316Z,18.99
2022-11-06T11:50:18.718Z,18.56
2022-11-06T11:52:46.376Z,18.20
2022-11-06T11:55:16.809Z,18.73
2022-11-06T11:57:44.774Z,18.63
2022-11-06T12:00:15.510Z,19.25
2022-11-06T12:02:44.082Z,19.21
2022-11-06T12:05:12.711Z,19.09
2022-11-06T12:07:50.039Z,19.43
2022-11-06T12:10:20.428Z,19.49
2022-11-06T12:12:50.023Z,19.50
2022-11-06T12:15:28.315Z,19.69
2022-11-06T12:18:01.177Z,19.93
2022-11-06T12:20:34.700Z,19.88
2022-11-06T12:23:02.095Z,18.04
2022-11-06T12:25:34.354Z,18.89
2022-11-06T12:28:02.924Z,18.66
2022-11-06T12:30:30.121Z,18.98
2022-11-06T12:33:06.845Z,18.50
2022-11-06T12:35:36.086Z,17.86
2022-11-06T12:38:18.803Z,18.66
2022-11-06T12:40:50.292Z,18.95
2022-11-06T12:43:17.746Z,18.80
2022-11-06T12:45:54.062Z,19.44
2022-11-06T12:48:21.794Z,18.99
2022-11-06T12:50:51.818Z,18.95
2022-11-06T12:53:30.943Z,19.02
2022-11-06T12:55:59.674Z,18.77
2022-11-06T12:58:41.765Z,19.41
2022-11-06T13:01:25.554Z,18.64
2022-11-06T13:03:53.013Z,18.91
2022-11-06T13:06:20.514Z,18.67
2022-11-06T13:08:54.390Z,18.31
2022-11-06T13:11:34.101Z,18.42
2022-11-06T13:14:19.854Z,18.78
2022-11-06T13:16:56.846Z,18.73
2022-11-06T13:19:32.138Z,19.72
2022-11-06T13:22:18.406Z,19.02
2022-11-06T13:24:54.682Z,19.12
2022-11-06T13:27:31.688Z,19.18
2022-11-06T13:30:06.548Z,19.38
2022-11-06T13:32:34.672Z,19.53
2022-11-06T13:35:02.239Z,19.20
2022-11-06T13:37:39.752Z,19.05
2022-11-06T13:40:10.799Z,19.25
2022-11-06T13:42:39.632Z,19.60
2022-11-06T13:45:07.538Z,19.24
2022-11-06T13:48:04.175Z,19.45
2022-11-06T13:50:41.563Z,19.27
2022-11-06T13:53:18.264Z,18.85
2022-11-06T13:55:45.753Z,19.37
2022-11-06T13:58:33.143Z,19.36
2022-11-06T14:01:19.811Z,19.16
2022-11-06T14:04:01.939Z,19.21
2022-11-06T14:06:30.048Z,19.44
2022-11-06T14:08:59.026Z,19.05
2022-11-06T14:11:36.482Z,19.39
2022-11-06T14:14:10.235Z,18.41
2022-11-06T14:16:40.913Z,18.55
2022-11-06T14:19:11.868Z,18.84
2022-11-06T14:21:39.471Z,18.48
2022-11-06T14:24:06.666Z,19.14
2022-11-06T14:26:52.553Z,18.85
2022-11-06T14:29:26.244Z,18.80
2022-11-06T14:32:08.657Z,18.89
2022-11-06T14:34:37.100Z,18.43
2022-11-06T14:37:31.347Z,18.54
2022-11-06T14:39:58.670Z,18.44
2022-11-06T14:42:30.427Z,18.35
2022-11-06T14:44:58.394Z,18.76
2022-11-06T14:47:41.646Z,18.78
2022-11-06T14:50:08.981Z,18.86
2022-11-06T14:52:40.984Z,18.76
2022-11-06T14:55:08.241Z,18.85
2022-11-06T14:57:40.215Z,19.21
2022-11-06T15:00:09.664Z,19.04
2022-11-06T15:02:37.857Z,18.96
2022-11-06T15:05:06.267Z,18.75
2022-11-06T15:08:03.165Z,18.81
2022-11-06T15:10:47.031Z,18.60
2022-11-06T15:13:17.716Z,19.42
2022-11-06T15:15:45.933Z,19.63
2022-11-06T15:18:15.157Z,19.75
2022-11-06T15:20:44.495Z,20.02
2022-11-06T15:23:15.810Z,19.84
2022-11-06T15:25:50.204Z,19.97
2022-11-06T15:28:22.522Z,20.16
2022-11-06T15:31:02.136Z,20.15
2022-11-06T15:33:33.900Z,19.84
2022-11-06T15:36:02.614Z,19.88
2022-11-06T15:38:37.332Z,20.02
2022-11-06T15:41:05.723Z,20.04
2022-11-06T15:43:34.045Z,20.11
2022-11-06T15:46:07.755Z,20.03
2022-11-06T15:48:43.856Z,20.02
2022-11-06T15:51:20.929Z,20.12
2022-11-06T15:53:49.583Z,20.12
2022-11-06T15:56:17.946Z,19.75
2022-11-06T15:58:45.411Z,19.88
2022-11-06T16:01:13.237Z,20.13
2022-11-06T16:03:47.367Z,20.18
2022-11-06T16:06:14.775Z,20.08
2022-11-06T16:08:42.234Z,20.03
2022-11-06T16:11:14.804Z,20.29
2022-11-06T16:13:43.056Z,19.45
2022-11-06T16:16:45.872Z,19.82
2022-11-06T16:19:22.093Z,19.86
2022-11-06T16:21:51.301Z,19.82
2022-11-06T16:24:18.796Z,20.11
2022-11-06T16:26:47.310Z,20.11
2022-11-06T16:29:18.929Z,20.14
2022-11-06T16:31:48.712Z,20.11
2022-11-06T16:34:19.974Z,20.01
2022-11-06T16:37:04.019Z,20.18
2022-11-06T16:39:48.287Z,20.28
2022-11-06T16:42:22.939Z,20.25
2022-11-06T16:45:05.268Z,19.50
2022-11-06T16:47:33.388Z,19.37
2022-11-06T16:50:02.233Z,19.23
2022-11-06T16:52:31.747Z,19.79
2022-11-06T16:55:01.063Z,19.80
2022-11-06T16:57:32.306Z,19.81
2022-11-06T17:00:09.222Z,19.89
2022-11-06T17:02:37.573Z,18.72
2022-11-06T17:05:11.753Z,19.22
2022-11-06T17:07:39.537Z,19.01
2022-11-06T17:10:27.874Z,19.06
2022-11-06T17:12:55.237Z,18.66
2022-11-06T17:15:22.992Z,19.32
2022-11-06T17:17:53.868Z,19.51
2022-11-06T17:20:21.073Z,19.42
2022-11-06T17:22:51.132Z,19.64
2022-11-06T17:25:18.909Z,19.24
2022-11-06T17:27:46.661Z,19.54
2022-11-06T17:30:15.367Z,19.36
2022-11-06T17:32:43.140Z,19.36
2022-11-06T17:35:10.970Z,19.38
2022-11-06T17:37:39.134Z,19.43
2022-11-06T17:40:07.137Z,19.52
2022-11-06T17:42:34.921Z,18.90
2022-11-06T17:45:02.588Z,18.97
2022-11-06T17:47:30.970Z,19.29
2022-11-06T17:49:59.795Z,19.43
2022-11-06T17:52:27.920Z,19.57
2022-11-06T17:54:55.681Z,19.47
2022-11-06T17:57:24.392Z,19.34
2022-11-06T17:59:52.287Z,19.50
2022-11-06T18:02:47.648Z,19.38
2022-11-06T18:05:13.614Z,19.34
2022-11-06T18:07:42.772Z,19.07
2022-11-06T18:10:12.795Z,19.30
2022-11-06T18:12:40.207Z,19.39
2022-11-06T18:15:07.624Z,19.42
2022-11-06T18:17:35.646Z,19.38
2022-11-06T18:20:06.408Z,19.42
2022-11-06T18:22:34.413Z,19.48
2022-11-06T18:25:02.434Z,19.46
2022-11-06T18:27:33.065Z,19.25
2022-11-06T18:30:00.679Z,19.22
2022-11-06T18:32:28.796Z,19.17
2022-11-06T18:34:56.552Z,19.27
2022-11-06T18:37:27.267Z,19.25
2022-11-06T18:39:55.348Z,18.91
2022-11-06T18:42:23.174Z,19.05
2022-11-06T18:44:52.952Z,19.08
2022-11-06T18:47:21.125Z,18.77
2022-11-06T18:49:56.226Z,18.84
2022-11-06T18:52:51.660Z,18.90
2022-11-06T18:55:14.821Z,19.02
2022-11-06T18:57:43.234Z,18.99
2022-11-06T19:00:13.702Z,19.09
2022-11-06T19:02:41.257Z,19.10
2022-11-06T19:05:09.432Z,19.15
2022-11-06T19:07:37.259Z,19.25
2022-11-06T19:10:06.271Z,18.92
2022-11-06T19:12:34.751Z,18.98
2022-11-06T19:15:03.601Z,19.22
2022-11-06T19:17:31.512Z,19.24
2022-11-06T19:19:59.859Z,19.17
2022-11-06T19:22:29.819Z,19.32
2022-11-06T19:24:57.549Z,19.06
2022-11-06T19:27:25.688Z,19.15
2022-11-06T19:29:54.159Z,19.17
2022-11-06T19:32:22.125Z,19.24
2022-11-06T19:34:50.473Z,18.86
2022-11-06T19:37:17.954Z,19.09
2022-11-06T19:39:45.747Z,19.14
2022-11-06T19:42:13.773Z,18.87
2022-11-06T19:44:41.684Z,18.99
2022-11-06T19:47:18.688Z,19.04
2022-11-06T19:49:46.986Z,18.80
2022-11-06T19:52:41.790Z,18.45
2022-11-06T19:55:25.966Z,18.52
2022-11-06T19:57:57.887Z,18.64
2022-11-06T20:00:38.594Z,18.56
2022-11-06T20:03:07.141Z,18.62
2022-11-06T20:05:35.120Z,18.59
2022-11-06T20:08:03.014Z,18.66
2022-11-06T20:10:31.131Z,18.64
2022-11-06T20:12:59.317Z,18.69
2022-11-06T20:15:28.828Z,18.72
2022-11-06T20:17:56.441Z,18.64
2022-11-06T20:20:23.995Z,18.78
2022-11-06T20:22:51.829Z,18.75
2022-11-06T20:25:19.975Z,18.84
2022-11-06T20:27:47.770Z,18.75
2022-11-06T20:30:15.628Z,18.85
2022-11-06T20:32:44.521Z,18.76
2022-11-06T20:35:16.320Z,18.87
2022-11-06T20:37:44.736Z,18.64
2022-11-06T20:40:13.466Z,18.77
2022-11-06T20:42:40.859Z,18.80
2022-11-06T20:45:08.995Z,18.87
2022-11-06T20:47:36.860Z,18.94
2022-11-06T20:50:05.296Z,18.95
2022-11-06T20:52:33.361Z,18.94
2022-11-06T20:55:01.341Z,18.98
2022-11-06T20:57:29.173Z,18.99
2022-11-06T21:00:00.689Z,18.84
2022-11-06T21:02:28.555Z,18.73
2022-11-06T21:04:56.280Z,18.74
2022-11-06T21:07:23.938Z,18.71
2022-11-06T21:09:51.594Z,18.82
2022-11-06T21:12:20.389Z,18.81
2022-11-06T21:14:48.923Z,18.81
2022-11-06T21:17:16.718Z,18.79
2022-11-06T21:19:46.468Z,18.85
2022-11-06T21:22:14.431Z,18.75
2022-11-06T21:24:41.982Z,18.59
2022-11-06T21:27:10.913Z,18.61
2022-11-06T21:29:38.901Z,18.71
2022-11-06T21:32:06.486Z,18.71
2022-11-06T21:34:34.140Z,18.81
2022-11-06T21:37:03.135Z,18.74
2022-11-06T21:39:35.968Z,18.77
2022-11-06T21:42:05.945Z,18.18
2022-11-06T21:44:33.250Z,18.33
2022-11-06T21:47:00.741Z,18.43
2022-11-06T21:49:28.249Z,18.54
2022-11-06T21:52:15.328Z,18.63
2022-11-06T21:55:01.812Z,18.67
2022-11-06T21:57:28.997Z,18.82
2022-11-06T21:59:56.913Z,18.75
2022-11-06T22:02:24.190Z,18.58
2022-11-06T22:04:51.708Z,18.51
2022-11-06T22:07:18.841Z,18.71
2022-11-06T22:09:45.971Z,18.79
2022-11-06T22:12:13.353Z,18.78
2022-11-06T22:14:40.484Z,18.84
2022-11-06T22:17:07.596Z,18.72
2022-11-06T22:19:35.004Z,18.67
2022-11-06T22:22:02.117Z,18.75
2022-11-06T22:24:29.518Z,18.74
2022-11-06T22:26:56.912Z,18.80
2022-11-06T22:29:24.112Z,18.84
2022-11-06T22:31:52.345Z,18.77
2022-11-06T22:34:19.727Z,18.85
2022-11-06T22:36:46.869Z,18.91
2022-11-06T22:39:14.069Z,18.81
2022-11-06T22:41:41.493Z,18.74
2022-11-06T22:44:09.281Z,18.61
2022-11-06T22:46:36.453Z,18.93
2022-11-06T22:49:04.700Z,18.84
2022-11-06T22:51:32.731Z,18.92
2022-11-06T22:54:00.256Z,18.83
2022-11-06T22:56:28.168Z,19.01
2022-11-06T22:58:55.650Z,18.92
2022-11-06T23:01:23.870Z,18.76
2022-11-06T23:03:51.390Z,19.05
2022-11-06T23:06:18.499Z,19.04
2022-11-06T23:08:47.193Z,18.41
2022-11-06T23:11:15.195Z,18.79
2022-11-06T23:13:43.846Z,18.77
2022-11-06T23:16:12.727Z,18.94
2022-11-06T23:18:40.127Z,18.73
2022-11-06T23:21:13.288Z,18.62
2022-11-06T23:23:41.423Z,18.08
2022-11-06T23:26:26.526Z,18.53
2022-11-06T23:28:54.880Z,18.80
2022-11-06T23:31:22.032Z,18.89
2022-11-06T23:33:49.194Z,18.86
2022-11-06T23:36:17.109Z,19.00
2022-11-06T23:38:44.461Z,19.05
2022-11-06T23:41:31.787Z,19.07
2022-11-06T23:43:59.289Z,19.01
2022-11-06T23:46:27.727Z,19.04
2022-11-06T23:48:55.048Z,19.13
2022-11-06T23:51:22.995Z,19.25
2022-11-06T23:53:50.115Z,19.11
2022-11-06T23:56:17.278Z,19.10
2022-11-06T23:58:44.809Z,19.21
